sensor_id;sensor_type;location;lat;lon;timestamp;pressure;altitude;pressure_sealevel;temperature;humidity
6899;BME280;3488;42.616;23.350;2024-03-02T00:02:06;92806.09;;;6.00;85.50
6899;BME280;3488;42.616;23.350;2024-03-02T00:04:32;92799.06;;;6.06;85.77
6899;BME280;3488;42.616;23.350;2024-03-02T00:06:57;92794.94;;;6.05;85.02
6899;BME280;3488;42.616;23.350;2024-03-02T00:09:23;92807.56;;;6.06;86.92
6899;BME280;3488;42.616;23.350;2024-03-02T00:11:48;92793.41;;;6.04;87.13
6899;BME280;3488;42.616;23.350;2024-03-02T00:14:14;92804.97;;;6.06;85.10
6899;BME280;3488;42.616;23.350;2024-03-02T00:16:40;92798.00;;;6.07;86.53
6899;BME280;3488;42.616;23.350;2024-03-02T00:19:07;92794.28;;;5.99;86.57
6899;BME280;3488;42.616;23.350;2024-03-02T00:21:34;92797.06;;;6.03;85.83
6899;BME280;3488;42.616;23.350;2024-03-02T00:24:01;92801.81;;;5.96;87.32
6899;BME280;3488;42.616;23.350;2024-03-02T00:26:32;92793.88;;;5.92;86.95
6899;BME280;3488;42.616;23.350;2024-03-02T00:28:57;92792.41;;;5.86;86.90
6899;BME280;3488;42.616;23.350;2024-03-02T00:31:22;92793.75;;;5.84;88.23
6899;BME280;3488;42.616;23.350;2024-03-02T00:33:48;92779.38;;;5.96;85.75
6899;BME280;3488;42.616;23.350;2024-03-02T00:36:16;92786.97;;;6.06;86.77
6899;BME280;3488;42.616;23.350;2024-03-02T00:38:47;92784.72;;;6.00;85.30
6899;BME280;3488;42.616;23.350;2024-03-02T00:43:48;92783.97;;;5.99;87.24
6899;BME280;3488;42.616;23.350;2024-03-02T00:46:19;92771.38;;;5.84;86.10
6899;BME280;3488;42.616;23.350;2024-03-02T00:48:52;92775.50;;;5.80;86.82
6899;BME280;3488;42.616;23.350;2024-03-02T00:51:20;92777.78;;;5.82;87.36
6899;BME280;3488;42.616;23.350;2024-03-02T00:53:45;92777.25;;;5.85;87.49
6899;BME280;3488;42.616;23.350;2024-03-02T00:56:11;92781.78;;;5.93;86.39
6899;BME280;3488;42.616;23.350;2024-03-02T00:58:39;92774.78;;;5.93;86.96
6899;BME280;3488;42.616;23.350;2024-03-02T01:01:05;92777.84;;;5.95;84.96
6899;BME280;3488;42.616;23.350;2024-03-02T01:03:32;92779.38;;;5.96;86.37
6899;BME280;3488;42.616;23.350;2024-03-02T01:05:58;92785.13;;;6.07;86.13
6899;BME280;3488;42.616;23.350;2024-03-02T01:08:23;92776.56;;;6.25;85.30
6899;BME280;3488;42.616;23.350;2024-03-02T01:10:49;92777.13;;;6.22;83.13
6899;BME280;3488;42.616;23.350;2024-03-02T01:13:14;92770.38;;;6.26;85.33
6899;BME280;3488;42.616;23.350;2024-03-02T01:15:40;92765.91;;;6.32;82.77
6899;BME280;3488;42.616;23.350;2024-03-02T01:18:06;92762.28;;;6.32;84.35
6899;BME280;3488;42.616;23.350;2024-03-02T01:20:32;92759.03;;;6.41;84.05
6899;BME280;3488;42.616;23.350;2024-03-02T01:22:57;92762.75;;;6.35;84.16
6899;BME280;3488;42.616;23.350;2024-03-02T01:25:23;92765.16;;;6.45;84.62
6899;BME280;3488;42.616;23.350;2024-03-02T01:27:48;92756.34;;;6.32;83.92
6899;BME280;3488;42.616;23.350;2024-03-02T01:30:14;92747.59;;;6.33;84.11
6899;BME280;3488;42.616;23.350;2024-03-02T01:32:39;92747.19;;;6.26;84.81
6899;BME280;3488;42.616;23.350;2024-03-02T01:35:06;92754.66;;;6.27;84.70
6899;BME280;3488;42.616;23.350;2024-03-02T01:37:32;92753.28;;;6.30;84.79
6899;BME280;3488;42.616;23.350;2024-03-02T01:39:57;92749.59;;;6.22;86.37
6899;BME280;3488;42.616;23.350;2024-03-02T01:42:23;92737.78;;;6.21;86.31
6899;BME280;3488;42.616;23.350;2024-03-02T01:44:49;92746.16;;;6.27;85.98
6899;BME280;3488;42.616;23.350;2024-03-02T01:47:14;92748.81;;;6.22;84.94
6899;BME280;3488;42.616;23.350;2024-03-02T01:49:40;92746.44;;;6.25;85.82
6899;BME280;3488;42.616;23.350;2024-03-02T01:52:06;92748.41;;;6.15;87.19
6899;BME280;3488;42.616;23.350;2024-03-02T01:54:32;92738.59;;;6.03;86.88
6899;BME280;3488;42.616;23.350;2024-03-02T01:56:58;92746.91;;;6.14;86.06
6899;BME280;3488;42.616;23.350;2024-03-02T01:59:23;92737.75;;;6.08;87.14
6899;BME280;3488;42.616;23.350;2024-03-02T02:01:49;92742.44;;;6.19;86.68
6899;BME280;3488;42.616;23.350;2024-03-02T02:04:14;92738.03;;;6.06;86.99
6899;BME280;3488;42.616;23.350;2024-03-02T02:06:40;92747.38;;;6.02;86.72
6899;BME280;3488;42.616;23.350;2024-03-02T02:09:06;92750.81;;;5.98;86.48
6899;BME280;3488;42.616;23.350;2024-03-02T02:11:33;92747.19;;;6.12;88.11
6899;BME280;3488;42.616;23.350;2024-03-02T02:13:59;92745.50;;;6.21;86.78
6899;BME280;3488;42.616;23.350;2024-03-02T02:16:25;92750.06;;;6.24;85.58
6899;BME280;3488;42.616;23.350;2024-03-02T02:18:50;92733.44;;;6.17;87.26
6899;BME280;3488;42.616;23.350;2024-03-02T02:21:15;92736.22;;;6.34;86.08
6899;BME280;3488;42.616;23.350;2024-03-02T02:23:41;92742.72;;;6.32;86.51
6899;BME280;3488;42.616;23.350;2024-03-02T02:26:11;92743.38;;;6.23;87.14
6899;BME280;3488;42.616;23.350;2024-03-02T02:28:37;92739.75;;;6.24;86.33
6899;BME280;3488;42.616;23.350;2024-03-02T02:31:03;92742.31;;;6.11;86.34
6899;BME280;3488;42.616;23.350;2024-03-02T02:33:28;92739.84;;;6.19;87.01
6899;BME280;3488;42.616;23.350;2024-03-02T02:35:54;92743.56;;;6.13;87.25
6899;BME280;3488;42.616;23.350;2024-03-02T02:38:20;92742.16;;;6.21;86.40
6899;BME280;3488;42.616;23.350;2024-03-02T02:40:45;92740.34;;;6.21;85.90
6899;BME280;3488;42.616;23.350;2024-03-02T02:43:11;92741.19;;;6.17;85.98
6899;BME280;3488;42.616;23.350;2024-03-02T02:45:36;92734.31;;;6.12;86.72
6899;BME280;3488;42.616;23.350;2024-03-02T02:48:02;92741.56;;;6.24;85.92
6899;BME280;3488;42.616;23.350;2024-03-02T02:50:28;92749.50;;;6.27;84.74
6899;BME280;3488;42.616;23.350;2024-03-02T02:52:53;92737.84;;;6.30;85.26
6899;BME280;3488;42.616;23.350;2024-03-02T02:55:20;92743.28;;;6.28;85.88
6899;BME280;3488;42.616;23.350;2024-03-02T02:57:45;92747.88;;;6.32;85.60
6899;BME280;3488;42.616;23.350;2024-03-02T03:00:13;92740.63;;;6.33;85.39
6899;BME280;3488;42.616;23.350;2024-03-02T03:02:45;92736.72;;;6.22;86.63
6899;BME280;3488;42.616;23.350;2024-03-02T03:05:13;92739.19;;;6.14;87.36
6899;BME280;3488;42.616;23.350;2024-03-02T03:07:40;92744.63;;;6.26;87.20
6899;BME280;3488;42.616;23.350;2024-03-02T03:10:06;92745.84;;;6.28;87.01
6899;BME280;3488;42.616;23.350;2024-03-02T03:12:33;92740.50;;;6.39;86.82
6899;BME280;3488;42.616;23.350;2024-03-02T03:14:59;92738.53;;;6.36;85.77
6899;BME280;3488;42.616;23.350;2024-03-02T03:17:26;92744.16;;;6.38;87.65
6899;BME280;3488;42.616;23.350;2024-03-02T03:19:52;92752.56;;;6.43;87.22
6899;BME280;3488;42.616;23.350;2024-03-02T03:22:17;92739.38;;;6.45;86.68
6899;BME280;3488;42.616;23.350;2024-03-02T03:24:43;92738.63;;;6.30;86.47
6899;BME280;3488;42.616;23.350;2024-03-02T03:27:09;92743.19;;;6.33;86.89
6899;BME280;3488;42.616;23.350;2024-03-02T03:29:36;92741.00;;;6.27;86.68
6899;BME280;3488;42.616;23.350;2024-03-02T03:32:02;92739.47;;;6.40;87.54
6899;BME280;3488;42.616;23.350;2024-03-02T03:34:28;92732.78;;;6.39;86.06
6899;BME280;3488;42.616;23.350;2024-03-02T03:36:54;92733.06;;;6.37;87.87
6899;BME280;3488;42.616;23.350;2024-03-02T03:39:20;92743.84;;;6.25;86.13
6899;BME280;3488;42.616;23.350;2024-03-02T03:41:45;92749.38;;;6.19;87.60
6899;BME280;3488;42.616;23.350;2024-03-02T03:44:11;92748.13;;;6.03;88.18
6899;BME280;3488;42.616;23.350;2024-03-02T03:46:36;92752.31;;;5.99;87.62
6899;BME280;3488;42.616;23.350;2024-03-02T03:49:02;92747.75;;;5.96;89.05
6899;BME280;3488;42.616;23.350;2024-03-02T03:51:29;92748.78;;;5.95;88.75
6899;BME280;3488;42.616;23.350;2024-03-02T03:53:55;92757.25;;;5.95;88.04
6899;BME280;3488;42.616;23.350;2024-03-02T03:56:21;92739.13;;;5.87;87.69
6899;BME280;3488;42.616;23.350;2024-03-02T03:58:47;92750.88;;;5.93;87.83
6899;BME280;3488;42.616;23.350;2024-03-02T04:01:12;92755.19;;;5.97;88.02
6899;BME280;3488;42.616;23.350;2024-03-02T04:03:38;92750.91;;;6.06;87.51
6899;BME280;3488;42.616;23.350;2024-03-02T04:06:04;92754.81;;;6.17;87.74
6899;BME280;3488;42.616;23.350;2024-03-02T04:08:29;92751.09;;;6.23;88.02
6899;BME280;3488;42.616;23.350;2024-03-02T04:10:55;92757.50;;;6.26;86.98
6899;BME280;3488;42.616;23.350;2024-03-02T04:13:21;92755.31;;;6.33;86.89
6899;BME280;3488;42.616;23.350;2024-03-02T04:15:47;92743.66;;;6.36;87.98
6899;BME280;3488;42.616;23.350;2024-03-02T04:18:12;92746.72;;;6.38;86.52
6899;BME280;3488;42.616;23.350;2024-03-02T04:20:37;92751.09;;;6.37;86.45
6899;BME280;3488;42.616;23.350;2024-03-02T04:23:03;92747.31;;;6.35;87.24
6899;BME280;3488;42.616;23.350;2024-03-02T04:25:29;92747.88;;;6.18;86.23
6899;BME280;3488;42.616;23.350;2024-03-02T04:27:55;92758.97;;;6.00;88.77
6899;BME280;3488;42.616;23.350;2024-03-02T04:30:21;92759.66;;;6.05;87.68
6899;BME280;3488;42.616;23.350;2024-03-02T04:32:47;92757.50;;;6.12;88.18
6899;BME280;3488;42.616;23.350;2024-03-02T04:35:14;92757.66;;;6.02;88.47
6899;BME280;3488;42.616;23.350;2024-03-02T04:37:39;92761.44;;;5.91;87.19
6899;BME280;3488;42.616;23.350;2024-03-02T04:40:05;92762.28;;;5.87;88.34
6899;BME280;3488;42.616;23.350;2024-03-02T04:42:34;92765.56;;;5.92;88.92
6899;BME280;3488;42.616;23.350;2024-03-02T04:45:00;92772.78;;;5.90;89.01
6899;BME280;3488;42.616;23.350;2024-03-02T04:47:26;92763.28;;;5.72;90.49
6899;BME280;3488;42.616;23.350;2024-03-02T04:49:52;92744.59;;;5.67;90.20
6899;BME280;3488;42.616;23.350;2024-03-02T04:52:17;92763.06;;;5.87;90.08
6899;BME280;3488;42.616;23.350;2024-03-02T04:54:43;92747.44;;;5.84;89.57
6899;BME280;3488;42.616;23.350;2024-03-02T04:57:27;92768.72;;;5.89;89.13
6899;BME280;3488;42.616;23.350;2024-03-02T04:59:52;92757.84;;;5.92;90.16
6899;BME280;3488;42.616;23.350;2024-03-02T05:02:18;92761.22;;;6.06;89.73
6899;BME280;3488;42.616;23.350;2024-03-02T05:04:43;92759.19;;;6.17;88.87
6899;BME280;3488;42.616;23.350;2024-03-02T05:07:09;92760.75;;;6.18;88.48
6899;BME280;3488;42.616;23.350;2024-03-02T05:09:35;92760.81;;;5.99;87.37
6899;BME280;3488;42.616;23.350;2024-03-02T05:12:00;92773.31;;;6.06;88.82
6899;BME280;3488;42.616;23.350;2024-03-02T05:14:41;92768.94;;;6.06;89.43
6899;BME280;3488;42.616;23.350;2024-03-02T05:17:07;92762.59;;;5.85;88.80
6899;BME280;3488;42.616;23.350;2024-03-02T05:19:32;92775.28;;;5.95;89.21
6899;BME280;3488;42.616;23.350;2024-03-02T05:21:58;92775.44;;;5.85;89.72
6899;BME280;3488;42.616;23.350;2024-03-02T05:24:23;92777.31;;;5.80;90.91
6899;BME280;3488;42.616;23.350;2024-03-02T05:26:49;92784.28;;;5.79;90.23
6899;BME280;3488;42.616;23.350;2024-03-02T05:29:14;92781.72;;;5.79;91.34
6899;BME280;3488;42.616;23.350;2024-03-02T05:31:40;92790.53;;;5.73;89.70
6899;BME280;3488;42.616;23.350;2024-03-02T05:34:05;92798.91;;;5.65;89.65
6899;BME280;3488;42.616;23.350;2024-03-02T05:36:31;92801.25;;;5.80;91.39
6899;BME280;3488;42.616;23.350;2024-03-02T05:38:57;92799.88;;;5.88;90.84
6899;BME280;3488;42.616;23.350;2024-03-02T05:41:22;92791.72;;;5.81;90.46
6899;BME280;3488;42.616;23.350;2024-03-02T05:43:48;92790.91;;;5.85;89.94
6899;BME280;3488;42.616;23.350;2024-03-02T05:46:14;92803.00;;;5.85;90.10
6899;BME280;3488;42.616;23.350;2024-03-02T05:48:40;92811.13;;;5.73;91.64
6899;BME280;3488;42.616;23.350;2024-03-02T05:51:05;92805.56;;;5.66;90.41
6899;BME280;3488;42.616;23.350;2024-03-02T05:53:31;92809.13;;;5.70;90.67
6899;BME280;3488;42.616;23.350;2024-03-02T05:55:56;92805.91;;;5.78;90.55
6899;BME280;3488;42.616;23.350;2024-03-02T05:58:22;92795.13;;;5.76;91.12
6899;BME280;3488;42.616;23.350;2024-03-02T06:00:48;92811.53;;;5.80;91.21
6899;BME280;3488;42.616;23.350;2024-03-02T06:03:13;92808.34;;;5.88;91.08
6899;BME280;3488;42.616;23.350;2024-03-02T06:05:39;92810.16;;;5.88;90.88
6899;BME280;3488;42.616;23.350;2024-03-02T06:08:06;92804.56;;;5.99;91.69
6899;BME280;3488;42.616;23.350;2024-03-02T06:10:32;92809.69;;;5.86;89.45
6899;BME280;3488;42.616;23.350;2024-03-02T06:12:58;92812.47;;;5.89;90.15
6899;BME280;3488;42.616;23.350;2024-03-02T06:15:24;92805.09;;;5.83;90.94
6899;BME280;3488;42.616;23.350;2024-03-02T06:17:50;92810.00;;;5.79;91.93
6899;BME280;3488;42.616;23.350;2024-03-02T06:20:15;92812.75;;;5.88;91.63
6899;BME280;3488;42.616;23.350;2024-03-02T06:22:40;92809.88;;;5.89;91.29
6899;BME280;3488;42.616;23.350;2024-03-02T06:25:06;92815.03;;;5.89;91.43
6899;BME280;3488;42.616;23.350;2024-03-02T06:27:32;92814.47;;;5.92;90.70
6899;BME280;3488;42.616;23.350;2024-03-02T06:29:57;92813.69;;;5.92;91.44
6899;BME280;3488;42.616;23.350;2024-03-02T06:32:23;92807.84;;;5.86;90.24
6899;BME280;3488;42.616;23.350;2024-03-02T06:34:50;92817.00;;;6.11;90.71
6899;BME280;3488;42.616;23.350;2024-03-02T06:37:16;92814.50;;;6.06;89.91
6899;BME280;3488;42.616;23.350;2024-03-02T06:39:41;92813.94;;;6.09;90.08
6899;BME280;3488;42.616;23.350;2024-03-02T06:42:07;92825.03;;;6.23;89.55
6899;BME280;3488;42.616;23.350;2024-03-02T06:44:32;92831.31;;;6.17;89.05
6899;BME280;3488;42.616;23.350;2024-03-02T06:46:58;92831.66;;;6.10;89.72
6899;BME280;3488;42.616;23.350;2024-03-02T06:49:23;92827.34;;;5.92;90.20
6899;BME280;3488;42.616;23.350;2024-03-02T06:51:49;92823.78;;;5.88;89.85
6899;BME280;3488;42.616;23.350;2024-03-02T06:54:15;92824.16;;;6.14;90.30
6899;BME280;3488;42.616;23.350;2024-03-02T06:56:40;92822.09;;;6.29;90.41
6899;BME280;3488;42.616;23.350;2024-03-02T06:59:06;92831.81;;;6.32;88.95
6899;BME280;3488;42.616;23.350;2024-03-02T07:01:32;92834.00;;;6.25;89.13
6899;BME280;3488;42.616;23.350;2024-03-02T07:03:58;92838.06;;;6.45;89.12
6899;BME280;3488;42.616;23.350;2024-03-02T07:06:23;92830.66;;;6.39;88.34
6899;BME280;3488;42.616;23.350;2024-03-02T07:08:49;92833.94;;;6.44;89.92
6899;BME280;3488;42.616;23.350;2024-03-02T07:11:14;92833.06;;;6.35;89.79
6899;BME280;3488;42.616;23.350;2024-03-02T07:13:40;92837.00;;;6.60;89.76
6899;BME280;3488;42.616;23.350;2024-03-02T07:16:05;92839.00;;;6.63;88.13
6899;BME280;3488;42.616;23.350;2024-03-02T07:18:49;92831.38;;;6.58;89.50
6899;BME280;3488;42.616;23.350;2024-03-02T07:21:17;92836.44;;;6.63;89.32
6899;BME280;3488;42.616;23.350;2024-03-02T07:23:42;92835.97;;;6.74;87.63
6899;BME280;3488;42.616;23.350;2024-03-02T07:26:08;92842.38;;;6.90;89.40
6899;BME280;3488;42.616;23.350;2024-03-02T07:28:33;92844.38;;;6.93;88.63
6899;BME280;3488;42.616;23.350;2024-03-02T07:31:03;92840.44;;;6.96;87.29
6899;BME280;3488;42.616;23.350;2024-03-02T07:33:30;92843.13;;;6.91;87.29
6899;BME280;3488;42.616;23.350;2024-03-02T07:35:56;92846.19;;;6.93;87.45
6899;BME280;3488;42.616;23.350;2024-03-02T07:38:22;92844.56;;;6.97;86.79
6899;BME280;3488;42.616;23.350;2024-03-02T07:40:48;92844.84;;;6.68;86.96
6899;BME280;3488;42.616;23.350;2024-03-02T07:43:17;92849.31;;;6.49;88.71
6899;BME280;3488;42.616;23.350;2024-03-02T07:45:44;92846.22;;;6.33;88.23
6899;BME280;3488;42.616;23.350;2024-03-02T07:48:10;92854.06;;;6.42;87.38
6899;BME280;3488;42.616;23.350;2024-03-02T07:50:35;92842.91;;;6.33;89.04
6899;BME280;3488;42.616;23.350;2024-03-02T07:53:02;92857.72;;;6.55;89.10
6899;BME280;3488;42.616;23.350;2024-03-02T07:55:29;92857.72;;;6.55;88.47
6899;BME280;3488;42.616;23.350;2024-03-02T07:57:55;92857.25;;;6.66;87.70
6899;BME280;3488;42.616;23.350;2024-03-02T08:00:21;92858.97;;;6.84;86.24
6899;BME280;3488;42.616;23.350;2024-03-02T08:02:47;92841.13;;;6.74;85.41
6899;BME280;3488;42.616;23.350;2024-03-02T08:05:13;92865.75;;;6.80;86.42
6899;BME280;3488;42.616;23.350;2024-03-02T08:07:38;92867.47;;;6.85;87.24
6899;BME280;3488;42.616;23.350;2024-03-02T08:10:05;92861.84;;;6.83;87.73
6899;BME280;3488;42.616;23.350;2024-03-02T08:12:30;92871.56;;;6.72;88.31
6899;BME280;3488;42.616;23.350;2024-03-02T08:14:56;92874.03;;;6.77;87.61
6899;BME280;3488;42.616;23.350;2024-03-02T08:17:21;92865.38;;;6.87;86.65
6899;BME280;3488;42.616;23.350;2024-03-02T08:19:47;92870.34;;;7.10;88.50
6899;BME280;3488;42.616;23.350;2024-03-02T08:22:14;92848.66;;;6.98;86.92
6899;BME280;3488;42.616;23.350;2024-03-02T08:24:40;92871.47;;;6.91;88.02
6899;BME280;3488;42.616;23.350;2024-03-02T08:27:06;92871.97;;;6.93;88.02
6899;BME280;3488;42.616;23.350;2024-03-02T08:29:31;92864.81;;;7.17;88.34
6899;BME280;3488;42.616;23.350;2024-03-02T08:31:57;92864.19;;;7.47;86.64
6899;BME280;3488;42.616;23.350;2024-03-02T08:34:22;92869.34;;;7.47;87.04
6899;BME280;3488;42.616;23.350;2024-03-02T08:36:48;92868.38;;;7.56;84.32
6899;BME280;3488;42.616;23.350;2024-03-02T08:39:14;92859.38;;;7.68;86.95
6899;BME280;3488;42.616;23.350;2024-03-02T08:41:49;92866.47;;;7.84;85.31
6899;BME280;3488;42.616;23.350;2024-03-02T08:44:15;92869.41;;;8.13;83.99
6899;BME280;3488;42.616;23.350;2024-03-02T08:46:41;92874.72;;;8.52;82.35
6899;BME280;3488;42.616;23.350;2024-03-02T08:49:07;92858.84;;;9.07;80.61
6899;BME280;3488;42.616;23.350;2024-03-02T08:51:33;92869.22;;;8.76;80.29
6899;BME280;3488;42.616;23.350;2024-03-02T08:53:59;92869.97;;;8.76;80.47
6899;BME280;3488;42.616;23.350;2024-03-02T08:56:25;92852.78;;;9.20;81.01
6899;BME280;3488;42.616;23.350;2024-03-02T08:58:51;92859.97;;;9.31;79.49
6899;BME280;3488;42.616;23.350;2024-03-02T09:01:17;92859.41;;;9.60;77.03
6899;BME280;3488;42.616;23.350;2024-03-02T09:03:43;92854.16;;;9.17;78.24
6899;BME280;3488;42.616;23.350;2024-03-02T09:06:12;92866.09;;;9.44;76.14
6899;BME280;3488;42.616;23.350;2024-03-02T09:08:39;92864.44;;;9.65;77.42
6899;BME280;3488;42.616;23.350;2024-03-02T09:11:06;92861.09;;;9.98;76.71
6899;BME280;3488;42.616;23.350;2024-03-02T09:13:32;92868.88;;;9.81;76.62
6899;BME280;3488;42.616;23.350;2024-03-02T09:15:58;92869.63;;;9.82;76.35
6899;BME280;3488;42.616;23.350;2024-03-02T09:18:24;92872.97;;;9.57;76.28
6899;BME280;3488;42.616;23.350;2024-03-02T09:20:49;92875.78;;;9.30;78.84
6899;BME280;3488;42.616;23.350;2024-03-02T09:23:15;92870.84;;;9.84;77.53
6899;BME280;3488;42.616;23.350;2024-03-02T09:25:40;92875.75;;;10.20;74.23
6899;BME280;3488;42.616;23.350;2024-03-02T09:28:05;92871.44;;;9.64;75.54
6899;BME280;3488;42.616;23.350;2024-03-02T09:30:32;92885.22;;;9.17;77.19
6899;BME280;3488;42.616;23.350;2024-03-02T09:32:57;92873.72;;;9.01;78.07
6899;BME280;3488;42.616;23.350;2024-03-02T09:35:23;92872.91;;;8.92;77.21
6899;BME280;3488;42.616;23.350;2024-03-02T09:37:49;92878.34;;;8.73;77.99
6899;BME280;3488;42.616;23.350;2024-03-02T09:40:14;92892.94;;;8.78;78.58
6899;BME280;3488;42.616;23.350;2024-03-02T09:42:41;92890.16;;;8.97;78.80
6899;BME280;3488;42.616;23.350;2024-03-02T09:45:09;92887.63;;;9.14;77.92
6899;BME280;3488;42.616;23.350;2024-03-02T09:47:36;92884.78;;;9.32;78.07
6899;BME280;3488;42.616;23.350;2024-03-02T09:50:02;92885.53;;;9.33;77.15
6899;BME280;3488;42.616;23.350;2024-03-02T09:52:30;92884.22;;;9.44;77.19
6899;BME280;3488;42.616;23.350;2024-03-02T09:54:56;92884.00;;;9.23;76.40
6899;BME280;3488;42.616;23.350;2024-03-02T09:57:21;92881.47;;;9.01;79.23
6899;BME280;3488;42.616;23.350;2024-03-02T09:59:47;92899.03;;;9.13;77.32
6899;BME280;3488;42.616;23.350;2024-03-02T10:02:12;92886.16;;;9.30;79.53
6899;BME280;3488;42.616;23.350;2024-03-02T10:04:38;92889.72;;;9.03;77.49
6899;BME280;3488;42.616;23.350;2024-03-02T10:09:41;92885.22;;;8.87;78.19
6899;BME280;3488;42.616;23.350;2024-03-02T10:12:08;92892.16;;;8.47;80.25
6899;BME280;3488;42.616;23.350;2024-03-02T10:14:34;92889.19;;;8.31;80.44
6899;BME280;3488;42.616;23.350;2024-03-02T10:17:08;92890.34;;;8.25;82.29
6899;BME280;3488;42.616;23.350;2024-03-02T10:19:36;92891.50;;;8.19;80.91
6899;BME280;3488;42.616;23.350;2024-03-02T10:22:04;92889.75;;;7.71;82.09
6899;BME280;3488;42.616;23.350;2024-03-02T10:24:42;92898.00;;;7.95;83.17
6899;BME280;3488;42.616;23.350;2024-03-02T10:27:17;92893.00;;;7.98;82.14
6899;BME280;3488;42.616;23.350;2024-03-02T10:29:46;92889.03;;;7.92;83.37
6899;BME280;3488;42.616;23.350;2024-03-02T10:32:12;92895.53;;;8.12;81.55
6899;BME280;3488;42.616;23.350;2024-03-02T10:34:43;92890.38;;;8.12;81.69
6899;BME280;3488;42.616;23.350;2024-03-02T10:37:13;92890.78;;;8.05;82.13
6899;BME280;3488;42.616;23.350;2024-03-02T10:39:39;92893.88;;;7.94;82.28
6899;BME280;3488;42.616;23.350;2024-03-02T10:42:08;92888.75;;;7.80;81.82
6899;BME280;3488;42.616;23.350;2024-03-02T10:44:34;92885.56;;;7.97;82.97
6899;BME280;3488;42.616;23.350;2024-03-02T10:47:01;92883.81;;;8.06;82.06
6899;BME280;3488;42.616;23.350;2024-03-02T10:49:29;92880.44;;;8.05;82.56
6899;BME280;3488;42.616;23.350;2024-03-02T10:51:59;92875.81;;;8.16;82.42
6899;BME280;3488;42.616;23.350;2024-03-02T10:54:26;92872.19;;;8.17;82.84
6899;BME280;3488;42.616;23.350;2024-03-02T10:56:53;92884.22;;;8.21;81.92
6899;BME280;3488;42.616;23.350;2024-03-02T11:01:55;92881.84;;;8.25;81.21
6899;BME280;3488;42.616;23.350;2024-03-02T11:04:21;92863.69;;;8.16;81.36
6899;BME280;3488;42.616;23.350;2024-03-02T11:06:50;92875.53;;;8.17;82.40
6899;BME280;3488;42.616;23.350;2024-03-02T11:09:19;92873.59;;;8.01;82.17
6899;BME280;3488;42.616;23.350;2024-03-02T11:11:46;92874.38;;;7.66;84.33
6899;BME280;3488;42.616;23.350;2024-03-02T11:14:17;92868.28;;;7.84;84.78
6899;BME280;3488;42.616;23.350;2024-03-02T11:16:47;92870.06;;;7.61;83.62
6899;BME280;3488;42.616;23.350;2024-03-02T11:19:14;92871.44;;;7.45;85.54
6899;BME280;3488;42.616;23.350;2024-03-02T11:21:40;92868.00;;;7.49;84.93
6899;BME280;3488;42.616;23.350;2024-03-02T11:26:48;92874.47;;;7.61;85.73
6899;BME280;3488;42.616;23.350;2024-03-02T11:32:01;92863.06;;;7.26;84.92
6899;BME280;3488;42.616;23.350;2024-03-02T11:34:31;92870.44;;;7.19;86.38
6899;BME280;3488;42.616;23.350;2024-03-02T11:36:57;92862.13;;;7.08;86.65
6899;BME280;3488;42.616;23.350;2024-03-02T11:39:25;92867.66;;;7.29;87.33
6899;BME280;3488;42.616;23.350;2024-03-02T11:41:51;92864.97;;;7.34;86.67
6899;BME280;3488;42.616;23.350;2024-03-02T11:44:17;92863.44;;;7.19;86.42
6899;BME280;3488;42.616;23.350;2024-03-02T11:46:45;92866.03;;;7.06;87.87
6899;BME280;3488;42.616;23.350;2024-03-02T11:49:14;92864.22;;;7.06;87.74
6899;BME280;3488;42.616;23.350;2024-03-02T11:51:54;92869.97;;;7.17;87.79
6899;BME280;3488;42.616;23.350;2024-03-02T11:54:26;92866.22;;;7.09;87.57
6899;BME280;3488;42.616;23.350;2024-03-02T11:56:54;92870.34;;;7.10;87.72
6899;BME280;3488;42.616;23.350;2024-03-02T11:59:20;92866.22;;;6.96;88.41
6899;BME280;3488;42.616;23.350;2024-03-02T12:01:47;92863.19;;;6.94;88.99
6899;BME280;3488;42.616;23.350;2024-03-02T12:04:13;92866.13;;;7.01;89.01
6899;BME280;3488;42.616;23.350;2024-03-02T12:06:39;92866.91;;;7.15;88.88
6899;BME280;3488;42.616;23.350;2024-03-02T12:09:04;92857.16;;;6.85;90.45
6899;BME280;3488;42.616;23.350;2024-03-02T12:11:30;92856.59;;;7.01;89.12
6899;BME280;3488;42.616;23.350;2024-03-02T12:13:55;92858.59;;;7.04;89.70
6899;BME280;3488;42.616;23.350;2024-03-02T12:16:25;92869.00;;;7.26;88.97
6899;BME280;3488;42.616;23.350;2024-03-02T12:18:50;92865.34;;;7.27;88.52
6899;BME280;3488;42.616;23.350;2024-03-02T12:21:16;92860.06;;;7.46;87.58
6899;BME280;3488;42.616;23.350;2024-03-02T12:23:42;92864.91;;;7.61;87.06
6899;BME280;3488;42.616;23.350;2024-03-02T12:26:07;92866.13;;;7.77;88.34
6899;BME280;3488;42.616;23.350;2024-03-02T12:28:34;92868.09;;;7.80;87.90
6899;BME280;3488;42.616;23.350;2024-03-02T12:30:59;92855.06;;;7.63;85.78
6899;BME280;3488;42.616;23.350;2024-03-02T12:33:25;92869.19;;;7.79;86.09
6899;BME280;3488;42.616;23.350;2024-03-02T12:35:52;92863.31;;;7.87;85.35
6899;BME280;3488;42.616;23.350;2024-03-02T12:38:18;92870.47;;;7.90;85.54
6899;BME280;3488;42.616;23.350;2024-03-02T12:40:44;92870.47;;;7.90;86.82
6899;BME280;3488;42.616;23.350;2024-03-02T12:43:12;92874.75;;;7.95;85.00
6899;BME280;3488;42.616;23.350;2024-03-02T12:45:38;92861.78;;;7.86;85.37
6899;BME280;3488;42.616;23.350;2024-03-02T12:48:04;92867.63;;;7.78;86.05
6899;BME280;3488;42.616;23.350;2024-03-02T12:50:30;92873.63;;;7.87;86.21
6899;BME280;3488;42.616;23.350;2024-03-02T12:52:56;92872.13;;;8.08;85.63
6899;BME280;3488;42.616;23.350;2024-03-02T12:55:22;92867.88;;;7.90;85.10
6899;BME280;3488;42.616;23.350;2024-03-02T12:57:50;92864.41;;;7.73;84.88
6899;BME280;3488;42.616;23.350;2024-03-02T13:00:18;92867.34;;;8.02;84.33
6899;BME280;3488;42.616;23.350;2024-03-02T13:02:45;92863.25;;;8.23;85.05
6899;BME280;3488;42.616;23.350;2024-03-02T13:05:11;92873.28;;;8.38;83.55
6899;BME280;3488;42.616;23.350;2024-03-02T13:07:37;92868.09;;;8.38;82.03
6899;BME280;3488;42.616;23.350;2024-03-02T13:10:04;92871.06;;;8.53;80.83
6899;BME280;3488;42.616;23.350;2024-03-02T13:12:30;92868.03;;;8.51;81.51
6899;BME280;3488;42.616;23.350;2024-03-02T13:14:58;92872.59;;;8.54;82.61
6899;BME280;3488;42.616;23.350;2024-03-02T13:17:24;92871.56;;;8.11;82.26
6899;BME280;3488;42.616;23.350;2024-03-02T13:19:53;92878.81;;;7.87;82.70
6899;BME280;3488;42.616;23.350;2024-03-02T13:22:19;92880.22;;;7.93;82.74
6899;BME280;3488;42.616;23.350;2024-03-02T13:24:44;92881.13;;;8.11;83.63
6899;BME280;3488;42.616;23.350;2024-03-02T13:27:10;92885.53;;;8.32;82.51
6899;BME280;3488;42.616;23.350;2024-03-02T13:29:36;92869.75;;;8.34;81.97
6899;BME280;3488;42.616;23.350;2024-03-02T13:32:02;92874.84;;;8.25;81.12